KHPT/HPT METAR and TAF weather

Enter ICAO airport designator
Station Type Date Time Source
KHPT METAR 2019/05/25 08:55 UTC NOAA

KHPT 250855Z AUTO 22010KT 10SM SCT012 SCT017 18/18 A2981 RMK AO2


Station Type Date Time Source
KHPT Decoded METAR 2019/05/25 08:55 UTC NOAA

Station name not available
May 25, 2019 - 04:55 AM EDT / 2019.05.25 0855 UTC
Wind: from the SW (220 degrees) at 12 MPH (10 KT):0
Visibility: 10 mile(s):0
Sky conditions: partly cloudy
Temperature: 64 F (18 C)
Dew Point: 64 F (18 C)
Relative Humidity: 100%
Pressure (altimeter): 29.81 in. Hg (1009 hPa)
ob: KHPT 250855Z AUTO 22010KT 10SM SCT012 SCT017 18/18 A2981 RMK AO2
cycle: 9

Station Type Date Time Source
KHPT TAF UTC NOAA

Error!

Example: see airport list